Time;durP1;ratioP1;P1;durP2;ratioP2;P2;SDS_P1;SDS_P2;PMS_P1;PMS_P2;Temp;Humidity;BMP_temperature;BMP_pressure;BME280_temperature;BME280_humidity;BME280_pressure;Samples;Min_cycle;Max_cycle;Signal;HPM_P1;HPM_P2
2023/01/31 00:01:27;;;;;;;11.02;5.70;;;17.20;65.60;;;18.24;36.54;97876.66;5051830;28;20317;-80
2023/01/31 00:03:54;;;;;;;15.38;7.03;;;17.20;65.90;;;18.19;36.70;97877.72;5018768;28;20117;-80
2023/01/31 00:06:23;;;;;;;10.40;5.40;;;17.20;65.80;;;18.20;36.32;97878.50;5050160;28;20468;-79
2023/01/31 00:08:50;;;;;;;8.68;4.68;;;17.10;65.80;;;18.22;36.38;97882.50;5036101;28;20066;-80
2023/01/31 00:11:18;;;;;;;10.65;5.60;;;17.20;65.80;;;18.24;36.44;97879.38;5052370;28;20131;-79
2023/01/31 00:13:46;;;;;;;10.23;5.65;;;17.20;65.60;;;18.19;36.50;97879.63;5015024;28;20044;-79
2023/01/31 00:16:13;;;;;;;11.18;5.78;;;17.20;65.60;;;18.17;36.66;97870.97;5033222;28;20461;-79
2023/01/31 00:18:39;;;;;;;11.30;5.20;;;17.20;65.60;;;18.19;36.51;97899.66;5012635;28;20090;-80
2023/01/31 00:21:14;;;;;;;13.55;5.22;;;17.20;65.60;;;18.19;36.57;97910.63;5031096;28;20047;-80
2023/01/31 00:23:41;;;;;;;11.52;4.97;;;17.20;65.70;;;18.18;36.35;97900.00;5050574;28;20048;-79
2023/01/31 00:26:24;;;;;;;7.65;4.57;;;17.20;65.80;;;18.20;36.39;97905.94;5034117;28;20531;-79
2023/01/31 00:28:53;;;;;;;9.07;4.65;;;17.10;65.80;;;18.19;36.57;97896.91;5021678;28;20370;-80
2023/01/31 00:31:20;;;;;;;10.13;5.07;;;17.10;65.80;;;18.17;36.35;97899.19;5046195;28;20077;-80
2023/01/31 00:33:47;;;;;;;10.57;4.50;;;17.10;65.60;;;18.17;36.46;97895.66;5015562;28;20041;-79
2023/01/31 00:36:15;;;;;;;8.90;4.05;;;17.10;65.60;;;18.19;36.55;97904.31;5052285;28;20059;-79
2023/01/31 00:38:42;;;;;;;8.52;4.95;;;17.10;65.70;;;18.16;36.43;97908.56;5048009;28;20116;-79
2023/01/31 00:41:08;;;;;;;9.00;4.82;;;17.10;65.70;;;18.19;36.53;97909.81;5049842;28;20041;-80
2023/01/31 00:43:34;;;;;;;11.65;5.20;;;17.10;65.80;;;18.15;36.61;97922.66;5035005;28;20351;-79
2023/01/31 00:46:00;;;;;;;13.68;4.75;;;17.10;65.70;;;18.14;36.45;97910.88;5035386;28;20043;-80
2023/01/31 00:48:27;;;;;;;9.05;5.28;;;17.10;65.70;;;18.16;36.54;97919.53;5018759;28;20158;-80
2023/01/31 00:50:52;;;;;;;9.45;4.38;;;17.10;65.80;;;18.17;36.63;97920.38;5054242;28;20052;-80
2023/01/31 00:53:22;;;;;;;8.95;4.93;;;17.10;65.80;;;18.16;36.36;97919.53;5037952;28;20062;-80
2023/01/31 00:55:53;;;;;;;14.30;5.90;;;17.20;65.60;;;18.13;36.47;97916.69;5055409;28;20040;-80
2023/01/31 00:58:19;;;;;;;5.43;3.70;;;17.10;65.60;;;18.16;36.26;97927.78;5019027;28;20086;-80
2023/01/31 01:00:46;;;;;;;9.15;5.18;;;17.10;65.70;;;18.17;36.42;97934.88;5035678;28;20037;-80
2023/01/31 01:03:12;;;;;;;7.35;4.28;;;17.10;65.80;;;18.16;36.38;97926.97;5033236;28;20033;-79
2023/01/31 01:05:39;;;;;;;9.57;4.63;;;17.10;65.80;;;18.15;36.52;97933.63;5055100;28;20086;-80
2023/01/31 01:08:05;;;;;;;11.90;5.22;;;17.10;65.80;;;18.12;36.44;97929.63;5053042;28;20059;-80
2023/01/31 01:10:32;;;;;;;7.28;4.03;;;17.10;65.90;;;18.15;36.50;97933.63;5056932;28;20298;-80
2023/01/31 01:12:58;;;;;;;10.05;4.97;;;17.10;65.60;;;18.12;36.48;97939.81;5058175;28;20044;-80
2023/01/31 01:15:24;;;;;;;6.15;4.07;;;17.10;65.60;;;18.11;36.38;97933.50;5037688;28;20032;-79
2023/01/31 01:17:50;;;;;;;10.05;5.57;;;17.10;65.50;;;18.11;36.41;97940.94;5056322;28;20484;-79
2023/01/31 01:20:16;;;;;;;9.25;4.38;;;17.10;65.80;;;18.11;36.50;97939.00;5058991;28;20041;-80
2023/01/31 01:22:42;;;;;;;8.13;4.90;;;17.10;65.60;;;18.09;36.57;97933.06;5023514;28;20040;-79
2023/01/31 01:25:09;;;;;;;8.13;4.70;;;17.10;65.70;;;18.13;36.61;97939.44;5039946;28;20483;-80
2023/01/31 01:27:35;;;;;;;9.32;4.97;;;17.20;66.10;;;18.14;36.82;97932.00;5053760;28;20572;-80
2023/01/31 01:30:02;;;;;;;7.65;4.07;;;17.20;66.10;;;18.10;36.75;97940.16;5037987;28;20048;-79
2023/01/31 01:32:28;;;;;;;8.73;4.65;;;17.20;65.90;;;18.10;36.52;97953.88;5055131;28;20048;-80
2023/01/31 01:34:54;;;;;;;7.40;4.53;;;17.20;65.70;;;18.15;36.62;97950.88;5053944;28;20036;-79
2023/01/31 01:37:21;;;;;;;6.60;3.75;;;17.20;65.80;;;18.11;36.62;97957.41;5057161;28;20151;-80
2023/01/31 01:39:48;;;;;;;8.77;4.40;;;17.10;65.70;;;18.11;36.71;97957.41;5019537;28;20666;-80
2023/01/31 01:42:20;;;;;;;10.30;4.82;;;17.10;65.80;;;18.09;36.50;97962.44;5073022;28;20441;-79
2023/01/31 01:44:54;;;;;;;11.73;4.80;;;17.10;65.80;;;18.10;36.50;97964.06;5056107;28;20120;-79
2023/01/31 01:47:51;;;;;;;8.73;4.43;;;17.10;65.60;;;18.08;36.56;97971.81;5040410;28;20047;-79
2023/01/31 01:50:37;;;;;;;9.20;4.55;;;17.10;65.80;;;18.07;36.64;97976.50;5071127;28;20093;-80
2023/01/31 01:53:16;;;;;;;10.07;4.53;;;17.10;65.60;;;18.06;36.74;97974.09;5039992;28;20605;-80
2023/01/31 01:55:50;;;;;;;8.80;4.18;;;17.10;65.60;;;18.06;36.57;97966.66;5038486;28;20044;-79
2023/01/31 01:58:23;;;;;;;8.98;4.43;;;17.10;65.50;;;18.07;36.51;97978.47;5069719;28;20036;-80
2023/01/31 02:00:49;;;;;;;9.82;4.40;;;17.10;65.50;;;18.04;36.75;97976.38;5068824;28;20036;-80
2023/01/31 02:03:15;;;;;;;5.68;3.55;;;17.10;65.80;;;18.02;36.69;97976.75;5056818;28;20046;-79
2023/01/31 02:05:50;;;;;;;10.00;3.92;;;17.10;65.80;;;18.01;36.74;97986.09;5052475;28;20048;-80
2023/01/31 02:08:21;;;;;;;8.25;5.13;;;17.10;65.70;;;17.98;36.83;97984.84;5069108;28;20037;-80
2023/01/31 02:10:57;;;;;;;5.90;3.95;;;17.10;65.80;;;18.03;36.74;97991.25;5056474;28;20146;-79
2023/01/31 02:13:24;;;;;;;6.78;3.90;;;17.10;65.70;;;18.01;36.73;97994.34;5051051;28;20161;-79
2023/01/31 02:15:50;;;;;;;7.55;3.75;;;17.10;65.70;;;18.00;36.71;98003.72;5071674;28;20122;-79
2023/01/31 02:18:16;;;;;;;8.75;4.20;;;17.00;65.70;;;17.99;36.54;98002.94;5039389;28;20044;-80
2023/01/31 02:21:04;;;;;;;8.27;3.78;;;17.10;65.80;;;17.99;36.67;98002.94;5038363;28;20186;-80
2023/01/31 02:24:10;;;;;;;6.43;3.67;;;17.10;65.80;;;18.05;36.51;98005.44;5054482;28;20040;-80
2023/01/31 02:26:51;;;;;;;6.30;3.58;;;17.10;65.90;;;17.99;36.54;98008.41;5074407;28;20651;-79
2023/01/31 02:29:52;;;;;;;10.20;4.63;;;17.00;65.90;;;17.99;36.74;98011.16;5090504;28;20040;-80
2023/01/31 02:32:45;;;;;;;10.68;4.43;;;17.00;65.70;;;17.96;36.63;98014.59;5055366;28;20071;-80
2023/01/31 02:35:21;;;;;;;10.98;3.75;;;17.10;65.60;;;17.98;36.63;98012.28;5091147;28;20104;-80
2023/01/31 02:38:07;;;;;;;7.82;3.63;;;17.10;65.60;;;17.99;36.47;98015.84;5058199;28;20122;-80
2023/01/31 02:41:18;;;;;;;7.63;3.95;;;17.10;65.60;;;17.96;36.50;98017.34;5075361;28;20050;-80
2023/01/31 02:47:00;;;;;;;6.00;3.75;;;17.00;65.60;;;17.92;36.85;98035.59;5078238;28;20051;-80
2023/01/31 02:49:41;;;;;;;9.60;4.45;;;17.00;65.60;;;17.91;36.47;98031.28;5058812;28;20043;-80
2023/01/31 02:52:57;;;;;;;4.70;3.00;;;17.00;65.70;;;17.91;36.79;98036.75;5058770;28;20048;-80
2023/01/31 02:56:18;;;;;;;7.07;3.40;;;17.00;65.70;;;17.89;36.65;98044.53;5076002;28;20123;-80
2023/01/31 02:59:17;;;;;;;5.65;3.15;;;17.00;65.50;;;17.90;36.84;98043.38;4981067;28;20046;-80
2023/01/31 03:01:46;;;;;;;7.57;3.70;;;17.00;65.40;;;17.87;36.58;98038.56;5058754;28;20139;-80
2023/01/31 03:04:13;;;;;;;6.32;3.40;;;17.00;65.40;;;17.88;36.61;98045.66;5074980;28;20627;-80
2023/01/31 03:06:59;;;;;;;6.00;3.25;;;17.00;65.40;;;17.85;36.78;98045.53;5024254;28;20044;-80
2023/01/31 03:09:40;;;;;;;4.72;3.20;;;17.00;65.50;;;17.87;36.80;98054.22;5050796;28;20051;-80
2023/01/31 03:12:29;;;;;;;6.78;3.45;;;17.00;65.40;;;17.87;36.75;98060.53;5056502;28;20098;-80
2023/01/31 03:15:07;;;;;;;7.93;3.97;;;17.00;65.60;;;17.89;36.79;98069.22;5059841;28;20141;-80
2023/01/31 03:17:44;;;;;;;7.72;3.63;;;17.00;65.60;;;17.87;36.80;98063.25;5073604;28;20068;-80
2023/01/31 03:20:21;;;;;;;5.75;3.38;;;16.90;65.50;;;17.83;36.68;98076.03;5060463;28;20050;-80
2023/01/31 03:23:03;;;;;;;4.43;3.00;;;17.00;65.60;;;17.86;36.60;98082.78;5077608;28;20044;-79
2023/01/31 03:25:32;;;;;;;5.63;3.55;;;17.00;65.50;;;17.85;36.64;98090.22;5059069;28;20150;-80
2023/01/31 03:28:01;;;;;;;6.80;3.60;;;17.00;65.40;;;17.87;36.54;98087.16;5040890;28;20035;-80
2023/01/31 03:30:32;;;;;;;5.50;3.30;;;17.00;65.30;;;17.91;36.68;98090.81;5063011;28;20048;-80
2023/01/31 03:33:11;;;;;;;7.32;3.45;;;17.00;65.30;;;17.92;36.73;98095.16;5076308;28;20040;-80
2023/01/31 03:35:38;;;;;;;4.57;3.03;;;17.00;65.60;;;17.91;36.79;98105.34;5057166;28;20036;-80
2023/01/31 03:38:16;;;;;;;7.80;3.30;;;17.10;65.80;;;17.92;36.37;98100.66;5040954;28;20044;-80
2023/01/31 03:40:48;;;;;;;5.68;3.33;;;17.00;65.40;;;17.92;36.45;98112.44;5063670;28;20050;-80
2023/01/31 03:43:32;;;;;;;4.10;3.00;;;17.00;65.40;;;17.89;36.61;98115.06;5043699;28;20036;-80
2023/01/31 03:46:02;;;;;;;5.35;3.28;;;17.00;65.60;;;17.91;36.84;98123.72;5074695;28;20153;-80
2023/01/31 03:48:34;;;;;;;4.20;2.88;;;17.00;65.50;;;17.94;36.67;98118.38;5042893;28;20036;-80
2023/01/31 03:51:05;;;;;;;7.72;2.95;;;17.00;65.90;;;18.00;37.11;98113.47;5059243;28;20077;-80
2023/01/31 03:53:45;;;;;;;3.35;2.67;;;17.10;66.00;;;17.99;36.46;98123.66;5025499;28;20044;-80
2023/01/31 03:56:19;;;;;;;4.70;3.03;;;17.10;65.50;;;17.90;36.79;98125.69;5037297;28;20043;-80
2023/01/31 03:58:50;;;;;;;8.10;3.55;;;17.00;65.60;;;17.91;37.01;98126.47;5072393;28;20128;-80
2023/01/31 04:01:17;;;;;;;6.65;3.10;;;17.00;65.60;;;17.92;36.71;98128.91;5055680;28;20106;-80
2023/01/31 04:03:47;;;;;;;5.22;3.30;;;17.10;65.60;;;17.93;36.91;98125.00;5022387;28;20049;-80
2023/01/31 04:06:14;;;;;;;4.32;2.75;;;17.10;65.60;;;17.94;36.52;98131.31;5049972;28;20046;-80
2023/01/31 04:08:40;;;;;;;6.82;3.25;;;17.10;65.60;;;17.89;36.90;98129.56;5053286;28;20036;-80
2023/01/31 04:11:09;;;;;;;5.32;3.08;;;17.10;65.50;;;17.98;36.71;98143.19;5052825;28;20475;-80
2023/01/31 04:13:36;;;;;;;8.30;3.33;;;17.10;65.40;;;18.03;36.55;98139.44;5037145;28;20698;-80
2023/01/31 04:16:02;;;;;;;6.18;3.35;;;17.20;65.40;;;18.05;36.80;98148.16;5056685;28;20046;-80
2023/01/31 04:18:28;;;;;;;5.75;2.97;;;17.20;65.50;;;18.05;36.57;98150.88;5054828;28;20547;-80
2023/01/31 04:20:54;;;;;;;7.15;3.00;;;17.20;65.30;;;18.04;36.66;98150.09;5034723;28;20367;-80
2023/01/31 04:23:21;;;;;;;5.60;3.00;;;17.20;65.20;;;18.04;36.66;98158.31;5051582;28;20036;-80
2023/01/31 04:25:47;;;;;;;7.15;3.30;;;17.20;65.30;;;18.07;36.46;98163.13;5036573;28;20254;-80
2023/01/31 04:28:13;;;;;;;5.25;2.60;;;17.20;65.40;;;18.09;36.24;98158.09;5040012;28;20039;-80
2023/01/31 04:30:39;;;;;;;6.18;2.30;;;17.20;65.40;;;18.11;36.74;98163.25;5062981;28;20855;-80
2023/01/31 04:33:05;;;;;;;5.95;2.88;;;17.20;65.50;;;18.17;36.44;98161.91;5063942;28;20044;-80
2023/01/31 04:35:31;;;;;;;5.85;2.85;;;17.30;65.30;;;18.15;36.49;98161.44;5059404;28;20044;-80
2023/01/31 04:37:58;;;;;;;5.40;2.92;;;17.30;65.30;;;18.17;36.53;98170.94;5063541;28;20036;-80
2023/01/31 04:40:24;;;;;;;5.55;2.97;;;17.30;65.30;;;18.22;36.43;98169.91;5044056;28;20044;-80
2023/01/31 04:42:50;;;;;;;3.53;2.38;;;17.30;65.30;;;18.21;36.59;98171.03;5042760;28;20093;-81
2023/01/31 04:45:16;;;;;;;4.95;2.75;;;17.30;65.50;;;18.25;36.54;98185.72;5043537;28;20040;-82
2023/01/31 04:47:42;;;;;;;4.95;3.35;;;17.40;66.40;;;18.27;36.56;98177.13;5058243;28;20051;-81
2023/01/31 04:50:10;;;;;;;5.63;2.25;;;17.40;65.40;;;18.28;36.43;98185.03;5041833;28;20064;-80
2023/01/31 04:52:36;;;;;;;4.22;2.67;;;17.40;65.40;;;18.28;36.61;98178.75;5069214;28;20040;-81
2023/01/31 04:55:03;;;;;;;3.50;2.67;;;17.50;65.40;;;18.31;36.51;98187.09;5035206;28;20036;-81
2023/01/31 04:57:29;;;;;;;4.43;2.80;;;17.50;65.50;;;18.33;36.64;98197.75;5034811;28;20895;-81
2023/01/31 04:59:55;;;;;;;6.50;3.15;;;17.50;65.40;;;18.35;36.42;98199.00;5045943;28;20055;-80
2023/01/31 05:02:22;;;;;;;3.05;2.47;;;17.50;65.40;;;18.36;36.63;98192.34;5034697;28;20056;-80
2023/01/31 05:04:48;;;;;;;5.13;2.65;;;17.50;65.40;;;18.35;36.59;98201.75;5051885;28;20040;-81
2023/01/31 05:07:14;;;;;;;5.35;2.80;;;17.50;65.40;;;18.37;36.56;98212.41;5027181;28;20040;-81
2023/01/31 05:09:42;;;;;;;5.63;2.75;;;17.50;65.50;;;18.40;36.51;98218.00;5035720;28;20589;-81
2023/01/31 05:12:08;;;;;;;4.43;2.25;;;17.50;65.50;;;18.39;36.44;98216.41;5038878;28;20176;-81
2023/01/31 05:14:35;;;;;;;3.83;2.40;;;17.60;65.40;;;18.41;36.50;98213.31;5049211;28;20039;-81
2023/01/31 05:17:01;;;;;;;4.70;2.40;;;17.50;65.30;;;18.39;36.47;98219.16;5051482;28;20068;-81
2023/01/31 05:19:27;;;;;;;6.38;2.50;;;17.50;65.30;;;18.37;36.26;98221.44;5044170;28;20059;-81
2023/01/31 05:21:53;;;;;;;3.90;2.58;;;17.50;65.50;;;18.41;36.44;98238.81;5066137;28;20500;-81
2023/01/31 05:24:24;;;;;;;4.15;2.67;;;17.50;65.40;;;18.38;36.61;98239.50;5063089;28;20452;-81
2023/01/31 05:26:51;;;;;;;3.50;2.38;;;17.60;65.40;;;18.43;36.43;98241.25;5033007;28;20474;-82
2023/01/31 05:29:18;;;;;;;3.55;2.00;;;17.60;66.10;;;18.46;36.35;98239.75;5057320;28;20047;-82
2023/01/31 05:31:44;;;;;;;3.42;2.50;;;17.60;65.40;;;18.43;36.54;98236.53;5023864;28;20175;-82
2023/01/31 05:34:14;;;;;;;3.63;2.42;;;17.60;65.50;;;18.42;36.54;98242.41;5043019;28;20079;-82
2023/01/31 05:36:41;;;;;;;4.00;3.08;;;17.60;65.60;;;18.44;36.55;98254.66;5067409;28;20036;-82
2023/01/31 05:39:08;;;;;;;5.88;2.90;;;17.60;65.60;;;18.43;36.60;98255.75;5052118;28;20046;-82
2023/01/31 05:41:34;;;;;;;4.05;2.78;;;17.60;65.40;;;18.47;36.35;98263.31;5044412;28;20052;-82
2023/01/31 05:44:00;;;;;;;5.90;2.78;;;17.60;65.40;;;18.41;36.43;98257.25;5065673;28;20040;-82
2023/01/31 05:46:26;;;;;;;5.10;2.13;;;17.60;65.50;;;18.41;36.53;98260.78;5062351;28;20039;-83
2023/01/31 05:48:52;;;;;;;5.47;3.00;;;17.60;65.50;;;18.41;36.43;98269.03;5062561;28;20047;-82
2023/01/31 05:51:18;;;;;;;2.88;1.98;;;17.60;65.50;;;18.40;36.48;98281.16;5060563;28;20123;-82
2023/01/31 05:53:44;;;;;;;6.25;2.28;;;17.60;65.60;;;18.44;36.41;98276.63;5029773;28;20048;-82
2023/01/31 05:56:10;;;;;;;3.42;2.28;;;17.60;65.60;;;18.42;36.64;98286.31;5092615;28;20036;-82
2023/01/31 05:58:36;;;;;;;3.75;2.75;;;17.50;65.60;;;18.41;36.58;98290.19;5047694;28;20559;-82
2023/01/31 06:01:02;;;;;;;3.75;2.40;;;17.60;65.60;;;18.41;36.43;98288.25;5080348;28;20156;-82
2023/01/31 06:03:28;;;;;;;7.25;2.47;;;17.60;65.60;;;18.41;36.64;98299.22;5046664;28;20046;-82
2023/01/31 06:05:54;;;;;;;3.53;2.42;;;17.50;65.50;;;18.39;36.69;98295.22;5062703;28;20040;-82
2023/01/31 06:08:21;;;;;;;3.35;1.77;;;17.50;65.60;;;18.39;36.70;98311.69;5071597;28;20040;-82
2023/01/31 06:10:47;;;;;;;3.85;2.40;;;17.50;65.80;;;18.42;36.36;98319.28;5061565;28;20048;-82
2023/01/31 06:13:13;;;;;;;5.38;2.47;;;17.50;65.80;;;18.38;36.75;98321.88;5061421;28;20047;-82
2023/01/31 06:15:43;;;;;;;2.78;1.90;;;17.50;65.80;;;18.40;36.59;98325.09;5062945;28;20411;-82
2023/01/31 06:18:10;;;;;;;5.80;2.38;;;17.40;66.00;;;18.41;36.80;98329.44;5064516;28;20048;-83
2023/01/31 06:20:37;;;;;;;2.58;1.92;;;17.50;66.00;;;18.42;37.07;98336.56;5026978;28;20435;-83
2023/01/31 06:23:04;;;;;;;3.78;2.38;;;17.50;66.00;;;18.40;36.90;98340.78;5056758;28;20139;-83
2023/01/31 06:25:30;;;;;;;4.80;2.53;;;17.40;66.00;;;18.40;36.76;98347.06;5040910;28;20032;-83
2023/01/31 06:27:56;;;;;;;2.78;2.20;;;17.50;66.10;;;18.41;36.67;98339.63;5044628;28;20041;-83
2023/01/31 06:30:22;;;;;;;4.00;2.30;;;17.50;66.20;;;18.40;36.88;98349.81;5041299;28;20044;-83
2023/01/31 06:32:48;;;;;;;4.32;2.20;;;17.50;66.30;;;18.43;36.74;98348.34;5043865;28;20127;-82
2023/01/31 06:35:14;;;;;;;3.40;2.28;;;17.50;66.30;;;18.39;37.02;98350.97;5062259;28;20135;-83
2023/01/31 06:37:41;;;;;;;3.45;1.80;;;17.40;66.30;;;18.36;37.13;98357.09;5038171;28;20044;-82
2023/01/31 06:40:08;;;;;;;1.80;1.65;;;17.40;66.60;;;18.38;37.15;98363.06;5025246;28;20644;-82
2023/01/31 06:42:34;;;;;;;5.32;2.47;;;17.40;66.50;;;18.32;37.13;98378.16;5018783;28;20451;-82
2023/01/31 06:45:00;;;;;;;3.13;2.03;;;17.40;66.50;;;18.38;36.89;98376.78;5077224;28;20044;-83
2023/01/31 06:47:26;;;;;;;3.80;2.17;;;17.40;66.50;;;18.38;36.97;98382.28;5038418;28;20032;-82
2023/01/31 06:49:52;;;;;;;5.38;3.13;;;17.50;66.40;;;18.39;36.97;98378.41;5060128;28;20624;-83
2023/01/31 06:52:18;;;;;;;4.43;2.60;;;17.40;66.50;;;18.32;37.02;98383.66;5026104;28;20040;-83
2023/01/31 06:54:44;;;;;;;3.60;2.08;;;17.40;66.50;;;18.39;36.78;98381.16;5072146;28;20054;-82
2023/01/31 06:57:10;;;;;;;6.65;2.83;;;17.40;66.50;;;18.35;36.81;98396.69;5028435;28;20039;-83
2023/01/31 06:59:36;;;;;;;3.15;2.35;;;17.40;66.50;;;18.33;36.98;98400.91;5060689;28;20040;-82
2023/01/31 07:02:02;;;;;;;4.43;2.08;;;17.40;66.40;;;18.38;36.92;98408.94;5059081;28;20028;-82
2023/01/31 07:04:28;;;;;;;3.42;2.05;;;17.40;66.30;;;18.37;36.95;98407.34;5073088;28;20046;-82
2023/01/31 07:06:56;;;;;;;3.15;1.95;;;17.40;66.40;;;18.35;37.10;98409.63;5061760;28;20039;-82
2023/01/31 07:09:22;;;;;;;6.75;2.47;;;17.30;66.40;;;18.36;36.96;98422.19;5041476;28;20383;-82
2023/01/31 07:11:49;;;;;;;3.70;1.65;;;17.30;67.30;;;18.36;37.11;98428.50;5059223;28;20698;-82
2023/01/31 07:14:15;;;;;;;3.55;1.88;;;17.30;66.60;;;18.37;37.06;98438.34;5044899;28;20046;-82
2023/01/31 07:16:42;;;;;;;6.30;2.53;;;17.40;67.00;;;18.36;37.12;98438.69;5058259;28;20177;-82
2023/01/31 07:19:08;;;;;;;5.30;2.33;;;17.40;66.80;;;18.35;36.94;98443.38;5044807;28;20105;-82
2023/01/31 07:21:35;;;;;;;1.98;1.70;;;17.40;66.60;;;18.35;36.98;98450.81;5075234;28;20046;-82
2023/01/31 07:24:02;;;;;;;3.45;2.38;;;17.40;66.60;;;18.35;37.03;98448.88;5060304;28;20388;-82
2023/01/31 07:26:29;;;;;;;4.15;1.90;;;17.40;66.60;;;18.32;37.07;98448.72;5059969;28;20036;-82
2023/01/31 07:28:56;;;;;;;6.18;2.22;;;17.40;66.60;;;18.35;36.71;98448.88;5059912;28;20043;-82
2023/01/31 07:31:22;;;;;;;6.05;2.40;;;17.30;66.60;;;18.36;37.03;98450.47;5059580;28;20044;-82
2023/01/31 07:33:48;;;;;;;3.85;1.88;;;17.30;66.50;;;18.39;37.04;98451.75;5061913;28;20483;-82
2023/01/31 07:36:15;;;;;;;1.77;1.48;;;17.30;66.50;;;18.38;36.80;98455.63;5057881;28;20116;-82
2023/01/31 07:38:41;;;;;;;2.33;1.80;;;17.30;66.50;;;18.36;36.78;98458.69;5053506;28;20036;-82
2023/01/31 07:41:08;;;;;;;3.55;2.33;;;17.30;66.40;;;18.36;36.96;98460.66;5076210;28;20488;-82
2023/01/31 07:43:35;;;;;;;2.97;1.88;;;17.40;66.40;;;18.38;37.04;98459.19;5042337;28;20475;-82
2023/01/31 07:46:04;;;;;;;3.13;2.38;;;17.40;66.50;;;18.37;36.86;98463.06;5057679;28;20123;-82
2023/01/31 07:48:30;;;;;;;5.25;2.42;;;17.30;66.40;;;18.37;36.92;98467.75;5061863;28;20036;-83
2023/01/31 07:51:00;;;;;;;2.83;1.90;;;17.30;66.40;;;18.35;36.94;98470.03;5048827;28;20141;-82
2023/01/31 07:53:31;;;;;;;4.50;2.45;;;17.30;66.40;;;18.33;36.75;98467.59;5057927;28;20043;-83
2023/01/31 07:56:09;;;;;;;3.08;2.08;;;17.30;66.50;;;18.32;36.67;98466.00;5043896;28;20420;-82
2023/01/31 07:58:37;;;;;;;3.28;1.60;;;17.30;66.40;;;18.33;36.86;98473.09;5091797;28;20047;-82
2023/01/31 08:03:47;;;;;;;3.00;2.30;;;17.30;66.30;;;18.33;36.67;98481.34;5064376;28;20104;-83
2023/01/31 08:06:14;;;;;;;2.90;1.83;;;17.30;66.30;;;18.33;36.66;98481.34;5039728;28;20045;-82
2023/01/31 08:08:40;;;;;;;3.10;2.08;;;17.30;66.30;;;18.38;36.62;98483.09;5042323;28;20582;-83
2023/01/31 08:11:07;;;;;;;3.67;2.15;;;17.30;66.20;;;18.34;36.83;98487.63;5025797;28;20051;-82
2023/01/31 08:13:37;;;;;;;4.18;2.17;;;17.30;66.30;;;18.35;36.52;98486.50;5057596;28;20066;-82
2023/01/31 08:16:05;;;;;;;2.15;1.90;;;17.30;66.30;;;18.33;36.87;98492.31;5057541;28;20105;-82
2023/01/31 08:18:32;;;;;;;2.72;2.13;;;17.30;66.30;;;18.32;36.89;98493.47;5060210;28;20126;-82
2023/01/31 08:20:58;;;;;;;3.80;2.15;;;17.20;66.30;;;18.36;36.70;98504.56;5043829;28;20056;-82
2023/01/31 08:23:26;;;;;;;3.28;2.13;;;17.30;66.30;;;18.36;36.78;98497.13;5075050;28;20123;-82
2023/01/31 08:26:01;;;;;;;4.88;2.05;;;17.30;66.20;;;18.38;36.86;98511.34;5059081;28;20567;-82
2023/01/31 08:28:27;;;;;;;3.00;2.40;;;17.30;66.20;;;18.39;36.61;98515.72;5062774;28;20036;-82
2023/01/31 08:30:53;;;;;;;5.38;2.55;;;17.20;66.20;;;18.41;36.70;98527.16;5059304;28;20093;-82
2023/01/31 08:33:19;;;;;;;4.57;2.13;;;17.20;66.30;;;18.41;36.64;98521.66;5052950;28;20036;-83
2023/01/31 08:35:45;;;;;;;4.30;2.08;;;17.20;66.20;;;18.39;36.71;98526.72;5041392;28;20040;-83
2023/01/31 08:38:11;;;;;;;2.55;2.10;;;17.30;66.20;;;18.39;36.69;98526.72;5068047;28;20568;-83
2023/01/31 08:40:37;;;;;;;6.55;2.65;;;17.30;66.90;;;18.39;36.71;98532.19;5023406;28;20032;-82
2023/01/31 08:43:03;;;;;;;2.03;1.83;;;17.30;66.10;;;18.43;36.70;98535.06;5075799;28;20065;-82
2023/01/31 08:45:30;;;;;;;3.63;2.20;;;17.30;66.10;;;18.40;36.37;98528.31;5042329;28;20075;-82
2023/01/31 08:47:57;;;;;;;5.00;2.13;;;17.40;66.10;;;18.44;36.33;98528.44;5061465;28;20383;-82
2023/01/31 08:50:25;;;;;;;2.78;1.77;;;17.30;65.80;;;18.37;36.71;98542.69;5028985;28;20503;-82
2023/01/31 08:52:56;;;;;;;1.98;1.63;;;17.30;65.90;;;18.36;36.52;98552.06;5044340;28;20055;-82
2023/01/31 08:55:23;;;;;;;3.00;1.70;;;17.40;65.90;;;18.34;36.64;98546.13;5045420;28;20036;-83
2023/01/31 08:57:49;;;;;;;3.70;2.53;;;17.30;65.90;;;18.38;36.71;98555.28;5039936;28;20274;-82
2023/01/31 09:00:16;;;;;;;2.22;1.65;;;17.30;66.00;;;18.40;36.56;98552.22;5060078;28;20036;-82
2023/01/31 09:02:42;;;;;;;3.63;1.95;;;17.40;66.10;;;18.36;36.25;98549.31;5053396;28;20047;-82
2023/01/31 09:05:08;;;;;;;2.90;1.80;;;17.30;66.00;;;18.38;36.56;98552.53;5059874;28;20123;-83
2023/01/31 09:07:35;;;;;;;2.90;1.70;;;17.30;66.00;;;18.42;36.40;98563.69;5058700;28;20659;-83
2023/01/31 09:10:01;;;;;;;3.08;1.63;;;17.30;66.00;;;18.42;36.48;98569.97;5056017;28;20092;-83
2023/01/31 09:12:27;;;;;;;2.97;1.90;;;17.30;66.10;;;18.43;36.52;98570.78;5046581;28;20433;-83
2023/01/31 09:14:53;;;;;;;3.25;1.90;;;17.30;66.10;;;18.39;36.79;98570.66;5045360;28;20046;-82
2023/01/31 09:17:19;;;;;;;2.85;2.22;;;17.30;66.00;;;18.39;36.61;98575.31;5062936;28;20591;-82
2023/01/31 09:19:47;;;;;;;3.17;1.98;;;17.30;66.10;;;18.40;36.52;98576.94;5075218;28;20032;-82
2023/01/31 09:22:13;;;;;;;4.10;1.80;;;17.30;65.90;;;18.42;36.44;98569.97;5048140;28;20065;-82
2023/01/31 09:24:39;;;;;;;2.88;1.90;;;17.40;66.00;;;18.42;36.34;98563.69;5043482;28;20044;-82
2023/01/31 09:27:05;;;;;;;5.20;2.50;;;17.40;66.00;;;18.46;36.53;98564.63;5039708;28;20044;-82
2023/01/31 09:29:34;;;;;;;3.90;2.20;;;17.40;65.90;;;18.43;36.41;98566.09;5037153;28;20048;-82
2023/01/31 09:32:00;;;;;;;4.38;2.05;;;17.30;66.40;;;18.43;36.33;98563.34;5075712;28;20570;-82
2023/01/31 09:34:27;;;;;;;3.13;2.05;;;17.30;66.00;;;18.43;36.50;98571.56;5076544;28;20040;-82
2023/01/31 09:36:54;;;;;;;2.03;1.63;;;17.40;65.80;;;18.46;36.27;98564.63;5059880;28;20043;-82
2023/01/31 09:39:20;;;;;;;2.83;2.15;;;17.40;65.70;;;18.53;36.48;98569.59;5071052;28;20132;-82
2023/01/31 09:41:52;;;;;;;2.40;1.38;;;17.40;66.00;;;18.50;36.47;98564.78;5038615;28;20085;-82
2023/01/31 09:44:28;;;;;;;3.97;2.50;;;17.40;66.00;;;18.46;36.47;98572.06;5059514;28;20089;-82
2023/01/31 09:46:57;;;;;;;4.15;2.22;;;17.40;65.80;;;18.50;36.19;98570.25;5061060;28;20112;-82
2023/01/31 09:49:30;;;;;;;4.82;1.90;;;17.40;65.90;;;18.48;36.23;98567.03;5060511;28;20040;-82
2023/01/31 09:51:59;;;;;;;4.65;2.15;;;17.40;65.70;;;18.44;36.34;98564.13;5059222;28;20086;-82
2023/01/31 09:54:37;;;;;;;2.10;1.80;;;17.50;65.70;;;18.50;36.53;98570.25;5076333;28;20036;-82
2023/01/31 09:57:12;;;;;;;5.22;2.13;;;17.50;66.10;;;18.50;36.40;98571.06;5056781;28;20125;-82
2023/01/31 10:00:15;;;;;;;5.60;2.03;;;17.40;65.90;;;18.47;36.47;98557.16;5074385;28;20094;-82
2023/01/31 10:02:58;;;;;;;;;;;17.40;65.80;;;18.45;36.60;98571.25;5076872;28;20040;-82
2023/01/31 10:05:42;;;;;;;5.15;2.00;;;17.40;66.00;;;18.43;36.45;98574.31;5073812;28;19928;-82
2023/01/31 10:08:25;;;;;;;3.05;2.10;;;17.40;65.90;;;18.49;36.39;98571.38;5059570;28;20096;-82
2023/01/31 10:10:53;;;;;;;4.43;1.88;;;17.40;66.00;;;18.52;36.17;98567.97;5069245;28;20056;-82
2023/01/31 10:13:34;;;;;;;3.25;2.08;;;17.40;65.80;;;18.46;36.59;98572.06;5025777;28;20194;-82
2023/01/31 10:16:23;;;;;;;5.32;2.03;;;17.40;65.80;;;18.47;36.37;98577.22;5074948;28;20042;-82
2023/01/31 10:18:52;;;;;;;4.10;2.15;;;17.50;65.90;;;18.51;36.20;98582.84;5074188;28;20068;-82
2023/01/31 10:21:40;;;;;;;3.03;2.10;;;17.40;65.60;;;18.48;36.43;98572.53;5070741;28;20387;-82
2023/01/31 10:24:22;;;;;;;4.10;2.03;;;17.40;65.60;;;18.44;36.38;98569.63;5073414;28;20044;-82
2023/01/31 10:26:50;;;;;;;2.45;1.83;;;17.50;65.60;;;18.47;36.32;98576.41;5026303;28;20071;-82
2023/01/31 10:29:38;;;;;;;4.03;1.88;;;17.50;65.50;;;18.47;36.37;98569.00;5058133;28;20056;-82
2023/01/31 10:32:15;;;;;;;3.63;2.20;;;17.50;65.60;;;18.48;36.28;98578.03;5042206;28;20044;-82
2023/01/31 10:34:51;;;;;;;2.70;2.20;;;17.40;65.50;;;18.42;36.32;98569.97;5054738;28;20044;-82
2023/01/31 10:37:42;;;;;;;3.10;2.15;;;17.50;65.70;;;18.41;36.40;98573.84;5058154;28;20110;-82